sensor_id;sensor_type;location;lat;lon;timestamp;temperature;humidity
64499;SHT31;51087;55.718;21.122;2023-04-15T00:00:25;9.59;77.87
64499;SHT31;51087;55.718;21.122;2023-04-15T00:02:50;9.61;77.83
64499;SHT31;51087;55.718;21.122;2023-04-15T00:05:17;9.59;77.86
64499;SHT31;51087;55.718;21.122;2023-04-15T00:07:42;9.62;77.81
64499;SHT31;51087;55.718;21.122;2023-04-15T00:10:08;9.61;77.89
64499;SHT31;51087;55.718;21.122;2023-04-15T00:12:33;9.56;77.90
64499;SHT31;51087;55.718;21.122;2023-04-15T00:14:59;9.51;78.05
64499;SHT31;51087;55.718;21.122;2023-04-15T00:17:24;9.58;77.86
64499;SHT31;51087;55.718;21.122;2023-04-15T00:19:50;9.56;77.94
64499;SHT31;51087;55.718;21.122;2023-04-15T00:22:15;9.59;77.86
64499;SHT31;51087;55.718;21.122;2023-04-15T00:24:41;9.55;78.09
64499;SHT31;51087;55.718;21.122;2023-04-15T00:27:07;9.54;77.98
64499;SHT31;51087;55.718;21.122;2023-04-15T00:29:32;9.55;78.12
64499;SHT31;51087;55.718;21.122;2023-04-15T00:31:58;9.58;77.95
64499;SHT31;51087;55.718;21.122;2023-04-15T00:34:23;9.58;78.06
64499;SHT31;51087;55.718;21.122;2023-04-15T00:36:50;9.62;77.78
64499;SHT31;51087;55.718;21.122;2023-04-15T00:39:16;9.61;77.92
64499;SHT31;51087;55.718;21.122;2023-04-15T00:41:43;9.62;77.80
64499;SHT31;51087;55.718;21.122;2023-04-15T00:44:09;9.63;77.78
64499;SHT31;51087;55.718;21.122;2023-04-15T00:46:36;9.69;77.65
64499;SHT31;51087;55.718;21.122;2023-04-15T00:49:08;9.68;77.59
64499;SHT31;51087;55.718;21.122;2023-04-15T00:51:34;9.69;77.43
64499;SHT31;51087;55.718;21.122;2023-04-15T00:54:04;9.68;77.56
64499;SHT31;51087;55.718;21.122;2023-04-15T00:56:34;9.71;77.38
64499;SHT31;51087;55.718;21.122;2023-04-15T00:59:00;9.73;77.24
64499;SHT31;51087;55.718;21.122;2023-04-15T01:01:27;9.73;77.32
64499;SHT31;51087;55.718;21.122;2023-04-15T01:03:56;9.75;77.04
64499;SHT31;51087;55.718;21.122;2023-04-15T01:06:22;9.75;76.92
64499;SHT31;51087;55.718;21.122;2023-04-15T01:08:48;9.76;77.02
64499;SHT31;51087;55.718;21.122;2023-04-15T01:11:14;9.78;76.91
64499;SHT31;51087;55.718;21.122;2023-04-15T01:13:40;9.82;76.69
64499;SHT31;51087;55.718;21.122;2023-04-15T01:16:07;9.85;76.35
64499;SHT31;51087;55.718;21.122;2023-04-15T01:18:33;9.86;76.37
64499;SHT31;51087;55.718;21.122;2023-04-15T01:21:00;9.89;76.17
64499;SHT31;51087;55.718;21.122;2023-04-15T01:23:29;9.89;76.17
64499;SHT31;51087;55.718;21.122;2023-04-15T01:25:55;9.86;76.07
64499;SHT31;51087;55.718;21.122;2023-04-15T01:28:21;9.90;75.95
64499;SHT31;51087;55.718;21.122;2023-04-15T01:30:46;9.93;75.83
64499;SHT31;51087;55.718;21.122;2023-04-15T01:33:12;10.00;75.61
64499;SHT31;51087;55.718;21.122;2023-04-15T01:35:38;9.96;75.75
64499;SHT31;51087;55.718;21.122;2023-04-15T01:38:12;9.93;75.59
64499;SHT31;51087;55.718;21.122;2023-04-15T01:40:37;9.93;75.48
64499;SHT31;51087;55.718;21.122;2023-04-15T01:43:03;9.94;75.45
64499;SHT31;51087;55.718;21.122;2023-04-15T01:45:28;9.94;75.42
64499;SHT31;51087;55.718;21.122;2023-04-15T01:47:55;9.99;75.13
64499;SHT31;51087;55.718;21.122;2023-04-15T01:50:21;9.97;74.99
64499;SHT31;51087;55.718;21.122;2023-04-15T01:52:47;10.00;74.74
64499;SHT31;51087;55.718;21.122;2023-04-15T01:55:13;9.96;75.03
64499;SHT31;51087;55.718;21.122;2023-04-15T01:57:39;9.96;74.85
64499;SHT31;51087;55.718;21.122;2023-04-15T02:00:05;9.90;74.83
64499;SHT31;51087;55.718;21.122;2023-04-15T02:02:32;9.90;75.01
64499;SHT31;51087;55.718;21.122;2023-04-15T02:04:57;9.94;74.84
64499;SHT31;51087;55.718;21.122;2023-04-15T02:07:23;9.87;75.05
64499;SHT31;51087;55.718;21.122;2023-04-15T02:09:48;9.85;74.91
64499;SHT31;51087;55.718;21.122;2023-04-15T02:12:14;9.85;75.10
64499;SHT31;51087;55.718;21.122;2023-04-15T02:14:39;9.89;74.69
64499;SHT31;51087;55.718;21.122;2023-04-15T02:17:05;9.86;74.77
64499;SHT31;51087;55.718;21.122;2023-04-15T02:19:35;9.85;74.66
64499;SHT31;51087;55.718;21.122;2023-04-15T02:22:00;9.81;74.75
64499;SHT31;51087;55.718;21.122;2023-04-15T02:24:26;9.82;74.69
64499;SHT31;51087;55.718;21.122;2023-04-15T02:26:52;9.81;74.53
64499;SHT31;51087;55.718;21.122;2023-04-15T02:29:17;9.78;74.53
64499;SHT31;51087;55.718;21.122;2023-04-15T02:31:43;9.76;74.63
64499;SHT31;51087;55.718;21.122;2023-04-15T02:34:09;9.76;74.57
64499;SHT31;51087;55.718;21.122;2023-04-15T02:36:35;9.72;74.51
64499;SHT31;51087;55.718;21.122;2023-04-15T02:39:00;9.75;74.27
64499;SHT31;51087;55.718;21.122;2023-04-15T02:41:26;9.73;74.22
64499;SHT31;51087;55.718;21.122;2023-04-15T02:43:53;9.72;74.37
64499;SHT31;51087;55.718;21.122;2023-04-15T02:46:19;9.72;74.18
64499;SHT31;51087;55.718;21.122;2023-04-15T02:48:46;9.72;74.27
64499;SHT31;51087;55.718;21.122;2023-04-15T02:51:13;9.65;74.69
64499;SHT31;51087;55.718;21.122;2023-04-15T02:53:38;9.63;74.62
64499;SHT31;51087;55.718;21.122;2023-04-15T02:56:04;9.63;74.60
64499;SHT31;51087;55.718;21.122;2023-04-15T02:58:30;9.59;74.39
64499;SHT31;51087;55.718;21.122;2023-04-15T03:00:56;9.62;74.44
64499;SHT31;51087;55.718;21.122;2023-04-15T03:03:21;9.59;74.43
64499;SHT31;51087;55.718;21.122;2023-04-15T03:05:47;9.59;74.53
64499;SHT31;51087;55.718;21.122;2023-04-15T03:08:12;9.58;74.57
64499;SHT31;51087;55.718;21.122;2023-04-15T03:10:39;9.55;74.58
64499;SHT31;51087;55.718;21.122;2023-04-15T03:13:04;9.52;74.79
64499;SHT31;51087;55.718;21.122;2023-04-15T03:15:31;9.51;74.82
64499;SHT31;51087;55.718;21.122;2023-04-15T03:17:56;9.54;74.75
64499;SHT31;51087;55.718;21.122;2023-04-15T03:20:22;9.49;74.79
64499;SHT31;51087;55.718;21.122;2023-04-15T03:22:48;9.51;74.90
64499;SHT31;51087;55.718;21.122;2023-04-15T03:25:13;9.47;75.09
64499;SHT31;51087;55.718;21.122;2023-04-15T03:27:38;9.44;75.17
64499;SHT31;51087;55.718;21.122;2023-04-15T03:30:09;9.42;75.15
64499;SHT31;51087;55.718;21.122;2023-04-15T03:32:35;9.42;75.14
64499;SHT31;51087;55.718;21.122;2023-04-15T03:35:01;9.44;75.17
64499;SHT31;51087;55.718;21.122;2023-04-15T03:37:28;9.42;75.00
64499;SHT31;51087;55.718;21.122;2023-04-15T03:39:53;9.41;75.14
64499;SHT31;51087;55.718;21.122;2023-04-15T03:42:20;9.37;75.00
64499;SHT31;51087;55.718;21.122;2023-04-15T03:44:46;9.38;75.21
64499;SHT31;51087;55.718;21.122;2023-04-15T03:47:12;9.41;75.09
64499;SHT31;51087;55.718;21.122;2023-04-15T03:49:37;9.37;75.30
64499;SHT31;51087;55.718;21.122;2023-04-15T03:52:03;9.41;75.05
64499;SHT31;51087;55.718;21.122;2023-04-15T03:54:28;9.38;75.36
64499;SHT31;51087;55.718;21.122;2023-04-15T03:56:53;9.37;75.20
64499;SHT31;51087;55.718;21.122;2023-04-15T03:59:20;9.42;75.10
64499;SHT31;51087;55.718;21.122;2023-04-15T04:01:45;9.41;74.89
64499;SHT31;51087;55.718;21.122;2023-04-15T04:04:11;9.35;75.12
64499;SHT31;51087;55.718;21.122;2023-04-15T04:06:36;9.35;75.19
64499;SHT31;51087;55.718;21.122;2023-04-15T04:09:02;9.35;75.29
64499;SHT31;51087;55.718;21.122;2023-04-15T04:11:29;9.38;75.27
64499;SHT31;51087;55.718;21.122;2023-04-15T04:13:54;9.39;75.22
64499;SHT31;51087;55.718;21.122;2023-04-15T04:16:20;9.39;75.26
64499;SHT31;51087;55.718;21.122;2023-04-15T04:18:45;9.37;75.27
64499;SHT31;51087;55.718;21.122;2023-04-15T04:21:11;9.42;75.32
64499;SHT31;51087;55.718;21.122;2023-04-15T04:23:37;9.48;75.17
64499;SHT31;51087;55.718;21.122;2023-04-15T04:26:02;9.48;75.00
64499;SHT31;51087;55.718;21.122;2023-04-15T04:28:27;9.49;74.99
64499;SHT31;51087;55.718;21.122;2023-04-15T04:30:53;9.52;75.00
64499;SHT31;51087;55.718;21.122;2023-04-15T04:33:20;9.59;74.84
64499;SHT31;51087;55.718;21.122;2023-04-15T04:35:46;9.61;74.62
64499;SHT31;51087;55.718;21.122;2023-04-15T04:38:12;9.66;74.47
64499;SHT31;51087;55.718;21.122;2023-04-15T04:40:37;9.69;74.42
64499;SHT31;51087;55.718;21.122;2023-04-15T04:43:03;9.71;74.46
64499;SHT31;51087;55.718;21.122;2023-04-15T04:45:28;9.72;74.40
64499;SHT31;51087;55.718;21.122;2023-04-15T04:47:54;9.76;74.19
64499;SHT31;51087;55.718;21.122;2023-04-15T04:50:19;9.82;74.26
64499;SHT31;51087;55.718;21.122;2023-04-15T04:52:45;9.79;74.13
64499;SHT31;51087;55.718;21.122;2023-04-15T04:55:12;9.83;74.10
64499;SHT31;51087;55.718;21.122;2023-04-15T04:57:37;9.78;74.18
64499;SHT31;51087;55.718;21.122;2023-04-15T05:00:05;9.81;74.28
64499;SHT31;51087;55.718;21.122;2023-04-15T05:02:32;9.79;74.29
64499;SHT31;51087;55.718;21.122;2023-04-15T05:04:58;9.85;74.16
64499;SHT31;51087;55.718;21.122;2023-04-15T05:07:23;9.87;74.23
64499;SHT31;51087;55.718;21.122;2023-04-15T05:09:48;9.92;74.06
64499;SHT31;51087;55.718;21.122;2023-04-15T05:12:15;9.96;74.10
64499;SHT31;51087;55.718;21.122;2023-04-15T05:14:42;10.00;73.68
64499;SHT31;51087;55.718;21.122;2023-04-15T05:17:08;10.03;73.79
64499;SHT31;51087;55.718;21.122;2023-04-15T05:19:33;10.04;73.76
64499;SHT31;51087;55.718;21.122;2023-04-15T05:21:59;10.06;73.78
64499;SHT31;51087;55.718;21.122;2023-04-15T05:24:25;10.13;73.42
64499;SHT31;51087;55.718;21.122;2023-04-15T05:26:50;10.20;73.29
64499;SHT31;51087;55.718;21.122;2023-04-15T05:29:16;10.21;73.36
64499;SHT31;51087;55.718;21.122;2023-04-15T05:31:42;10.36;73.16
64499;SHT31;51087;55.718;21.122;2023-04-15T05:34:07;10.40;72.88
64499;SHT31;51087;55.718;21.122;2023-04-15T05:36:33;10.47;72.82
64499;SHT31;51087;55.718;21.122;2023-04-15T05:38:58;10.58;72.70
64499;SHT31;51087;55.718;21.122;2023-04-15T05:41:24;10.57;72.80
64499;SHT31;51087;55.718;21.122;2023-04-15T05:43:50;10.69;72.39
64499;SHT31;51087;55.718;21.122;2023-04-15T05:46:15;10.72;72.47
64499;SHT31;51087;55.718;21.122;2023-04-15T05:48:42;10.75;72.50
64499;SHT31;51087;55.718;21.122;2023-04-15T05:51:08;10.86;72.54
64499;SHT31;51087;55.718;21.122;2023-04-15T05:53:33;10.97;71.92
64499;SHT31;51087;55.718;21.122;2023-04-15T05:55:59;11.05;71.97
64499;SHT31;51087;55.718;21.122;2023-04-15T05:58:24;11.03;71.93
64499;SHT31;51087;55.718;21.122;2023-04-15T06:00:50;11.12;71.88
64499;SHT31;51087;55.718;21.122;2023-04-15T06:03:16;11.23;71.56
64499;SHT31;51087;55.718;21.122;2023-04-15T06:05:42;11.17;71.85
64499;SHT31;51087;55.718;21.122;2023-04-15T06:08:08;11.16;71.92
64499;SHT31;51087;55.718;21.122;2023-04-15T06:10:34;11.28;71.63
64499;SHT31;51087;55.718;21.122;2023-04-15T06:13:01;11.37;71.44
64499;SHT31;51087;55.718;21.122;2023-04-15T06:15:28;11.41;71.36
64499;SHT31;51087;55.718;21.122;2023-04-15T06:17:53;11.50;71.05
64499;SHT31;51087;55.718;21.122;2023-04-15T06:20:19;11.52;70.97
64499;SHT31;51087;55.718;21.122;2023-04-15T06:22:44;11.55;71.23
64499;SHT31;51087;55.718;21.122;2023-04-15T06:25:10;11.55;71.22
64499;SHT31;51087;55.718;21.122;2023-04-15T06:27:36;11.67;71.18
64499;SHT31;51087;55.718;21.122;2023-04-15T06:30:01;11.52;70.82
64499;SHT31;51087;55.718;21.122;2023-04-15T06:32:27;11.57;70.91
64499;SHT31;51087;55.718;21.122;2023-04-15T06:34:52;11.57;70.84
64499;SHT31;51087;55.718;21.122;2023-04-15T06:37:18;11.47;71.00
64499;SHT31;51087;55.718;21.122;2023-04-15T06:39:43;11.55;71.04
64499;SHT31;51087;55.718;21.122;2023-04-15T06:42:09;11.72;70.83
64499;SHT31;51087;55.718;21.122;2023-04-15T06:44:35;11.74;70.68
64499;SHT31;51087;55.718;21.122;2023-04-15T06:47:01;11.78;70.43
64499;SHT31;51087;55.718;21.122;2023-04-15T06:49:27;11.75;70.75
64499;SHT31;51087;55.718;21.122;2023-04-15T06:51:52;11.62;70.45
64499;SHT31;51087;55.718;21.122;2023-04-15T06:54:17;11.61;70.42
64499;SHT31;51087;55.718;21.122;2023-04-15T06:56:43;11.68;70.35
64499;SHT31;51087;55.718;21.122;2023-04-15T06:59:08;11.71;70.16
64499;SHT31;51087;55.718;21.122;2023-04-15T07:01:34;11.75;70.26
64499;SHT31;51087;55.718;21.122;2023-04-15T07:03:59;11.74;69.77
64499;SHT31;51087;55.718;21.122;2023-04-15T07:06:25;11.78;69.51
64499;SHT31;51087;55.718;21.122;2023-04-15T07:08:51;11.85;69.54
64499;SHT31;51087;55.718;21.122;2023-04-15T07:11:17;11.99;69.17
64499;SHT31;51087;55.718;21.122;2023-04-15T07:13:42;11.98;68.91
64499;SHT31;51087;55.718;21.122;2023-04-15T07:16:08;12.00;68.95
64499;SHT31;51087;55.718;21.122;2023-04-15T07:18:33;12.07;68.54
64499;SHT31;51087;55.718;21.122;2023-04-15T07:20:59;12.02;68.66
64499;SHT31;51087;55.718;21.122;2023-04-15T07:23:24;12.16;68.73
64499;SHT31;51087;55.718;21.122;2023-04-15T07:25:49;12.16;68.11
64499;SHT31;51087;55.718;21.122;2023-04-15T07:28:16;12.22;68.25
64499;SHT31;51087;55.718;21.122;2023-04-15T07:30:42;11.96;68.33
64499;SHT31;51087;55.718;21.122;2023-04-15T07:33:07;11.95;68.46
64499;SHT31;51087;55.718;21.122;2023-04-15T07:35:32;11.95;68.39
64499;SHT31;51087;55.718;21.122;2023-04-15T07:37:58;12.17;67.87
64499;SHT31;51087;55.718;21.122;2023-04-15T07:40:23;12.23;67.49
64499;SHT31;51087;55.718;21.122;2023-04-15T07:42:49;12.37;67.27
64499;SHT31;51087;55.718;21.122;2023-04-15T07:45:14;12.37;67.16
64499;SHT31;51087;55.718;21.122;2023-04-15T07:47:40;12.47;67.28
64499;SHT31;51087;55.718;21.122;2023-04-15T07:50:08;12.61;67.01
64499;SHT31;51087;55.718;21.122;2023-04-15T07:52:34;12.55;66.67
64499;SHT31;51087;55.718;21.122;2023-04-15T07:55:07;12.60;66.42
64499;SHT31;51087;55.718;21.122;2023-04-15T07:57:36;12.64;66.49
64499;SHT31;51087;55.718;21.122;2023-04-15T08:00:03;12.89;65.43
64499;SHT31;51087;55.718;21.122;2023-04-15T08:02:31;12.98;65.35
64499;SHT31;51087;55.718;21.122;2023-04-15T08:04:57;12.95;65.14
64499;SHT31;51087;55.718;21.122;2023-04-15T08:07:23;13.22;64.56
64499;SHT31;51087;55.718;21.122;2023-04-15T08:09:49;13.50;63.82
64499;SHT31;51087;55.718;21.122;2023-04-15T08:12:15;13.71;62.80
64499;SHT31;51087;55.718;21.122;2023-04-15T08:14:40;13.88;62.41
64499;SHT31;51087;55.718;21.122;2023-04-15T08:17:06;13.47;62.65
64499;SHT31;51087;55.718;21.122;2023-04-15T08:19:31;13.39;63.38
64499;SHT31;51087;55.718;21.122;2023-04-15T08:21:57;13.15;63.81
64499;SHT31;51087;55.718;21.122;2023-04-15T08:24:23;13.56;63.30
64499;SHT31;51087;55.718;21.122;2023-04-15T08:26:50;13.88;62.66
64499;SHT31;51087;55.718;21.122;2023-04-15T08:29:16;14.16;62.05
64499;SHT31;51087;55.718;21.122;2023-04-15T08:31:41;13.94;61.78
64499;SHT31;51087;55.718;21.122;2023-04-15T08:34:07;13.95;62.37
64499;SHT31;51087;55.718;21.122;2023-04-15T08:36:33;13.98;61.74
64499;SHT31;51087;55.718;21.122;2023-04-15T08:38:58;14.15;61.64
64499;SHT31;51087;55.718;21.122;2023-04-15T08:41:33;14.26;61.01
64499;SHT31;51087;55.718;21.122;2023-04-15T08:44:03;14.23;61.17
64499;SHT31;51087;55.718;21.122;2023-04-15T08:46:30;14.22;61.42
64499;SHT31;51087;55.718;21.122;2023-04-15T08:48:57;14.33;60.89
64499;SHT31;51087;55.718;21.122;2023-04-15T08:51:23;14.05;61.45
64499;SHT31;51087;55.718;21.122;2023-04-15T08:53:49;14.01;61.40
64499;SHT31;51087;55.718;21.122;2023-04-15T08:56:15;13.79;62.08
64499;SHT31;51087;55.718;21.122;2023-04-15T08:58:42;13.70;62.18
64499;SHT31;51087;55.718;21.122;2023-04-15T09:01:10;14.05;62.36
64499;SHT31;51087;55.718;21.122;2023-04-15T09:03:36;14.04;61.43
64499;SHT31;51087;55.718;21.122;2023-04-15T09:06:03;14.40;60.92
64499;SHT31;51087;55.718;21.122;2023-04-15T09:08:30;14.92;59.14
64499;SHT31;51087;55.718;21.122;2023-04-15T09:10:55;15.52;57.55
64499;SHT31;51087;55.718;21.122;2023-04-15T09:13:21;15.64;56.73
64499;SHT31;51087;55.718;21.122;2023-04-15T09:15:47;15.59;56.80
64499;SHT31;51087;55.718;21.122;2023-04-15T09:18:26;16.28;56.26
64499;SHT31;51087;55.718;21.122;2023-04-15T09:20:52;16.87;53.80
64499;SHT31;51087;55.718;21.122;2023-04-15T09:23:17;17.83;51.71
64499;SHT31;51087;55.718;21.122;2023-04-15T09:25:44;17.63;51.12
64499;SHT31;51087;55.718;21.122;2023-04-15T09:28:10;17.94;50.36
64499;SHT31;51087;55.718;21.122;2023-04-15T09:30:36;17.87;50.24
64499;SHT31;51087;55.718;21.122;2023-04-15T09:33:03;18.37;49.49
64499;SHT31;51087;55.718;21.122;2023-04-15T09:35:35;18.41;48.45
64499;SHT31;51087;55.718;21.122;2023-04-15T09:38:08;18.90;48.12
64499;SHT31;51087;55.718;21.122;2023-04-15T09:40:41;19.21;47.81
64499;SHT31;51087;55.718;21.122;2023-04-15T09:43:08;19.38;47.14
64499;SHT31;51087;55.718;21.122;2023-04-15T09:45:34;19.47;47.09
64499;SHT31;51087;55.718;21.122;2023-04-15T09:48:19;18.96;48.00
64499;SHT31;51087;55.718;21.122;2023-04-15T09:50:47;18.93;48.22
64499;SHT31;51087;55.718;21.122;2023-04-15T09:53:20;18.42;48.70
64499;SHT31;51087;55.718;21.122;2023-04-15T09:55:57;18.60;49.34
64499;SHT31;51087;55.718;21.122;2023-04-15T09:58:30;18.73;48.54
64499;SHT31;51087;55.718;21.122;2023-04-15T10:00:57;18.63;48.58
64499;SHT31;51087;55.718;21.122;2023-04-15T10:03:31;19.18;47.56
64499;SHT31;51087;55.718;21.122;2023-04-15T10:05:58;19.65;46.42
64499;SHT31;51087;55.718;21.122;2023-04-15T10:08:27;19.11;47.53
64499;SHT31;51087;55.718;21.122;2023-04-15T10:10:53;19.72;46.16
64499;SHT31;51087;55.718;21.122;2023-04-15T10:13:24;21.30;43.68
64499;SHT31;51087;55.718;21.122;2023-04-15T10:15:55;22.60;40.70
64499;SHT31;51087;55.718;21.122;2023-04-15T10:18:27;23.85;39.04
64499;SHT31;51087;55.718;21.122;2023-04-15T10:20:53;23.66;38.71
64499;SHT31;51087;55.718;21.122;2023-04-15T10:23:21;22.88;39.03
64499;SHT31;51087;55.718;21.122;2023-04-15T10:25:51;21.92;41.58
64499;SHT31;51087;55.718;21.122;2023-04-15T10:28:18;22.01;41.70
64499;SHT31;51087;55.718;21.122;2023-04-15T10:30:44;23.49;39.24
64499;SHT31;51087;55.718;21.122;2023-04-15T10:33:12;24.30;37.16
64499;SHT31;51087;55.718;21.122;2023-04-15T10:35:38;23.75;38.30
64499;SHT31;51087;55.718;21.122;2023-04-15T10:38:43;23.50;38.42
64499;SHT31;51087;55.718;21.122;2023-04-15T10:41:26;23.85;37.74
64499;SHT31;51087;55.718;21.122;2023-04-15T10:49:14;23.52;38.29
64499;SHT31;51087;55.718;21.122;2023-04-15T10:51:45;23.43;39.18
64499;SHT31;51087;55.718;21.122;2023-04-15T10:54:16;22.81;39.65
64499;SHT31;51087;55.718;21.122;2023-04-15T10:59:38;21.95;40.95
64499;SHT31;51087;55.718;21.122;2023-04-15T11:02:53;21.06;42.41
64499;SHT31;51087;55.718;21.122;2023-04-15T11:05:20;19.45;44.24
64499;SHT31;51087;55.718;21.122;2023-04-15T11:07:50;19.28;45.75
64499;SHT31;51087;55.718;21.122;2023-04-15T11:12:57;18.75;47.16
64499;SHT31;51087;55.718;21.122;2023-04-15T11:15:33;19.54;46.34
64499;SHT31;51087;55.718;21.122;2023-04-15T11:20:51;19.17;47.05
64499;SHT31;51087;55.718;21.122;2023-04-15T11:23:26;19.07;47.07
64499;SHT31;51087;55.718;21.122;2023-04-15T11:25:54;18.30;48.00
64499;SHT31;51087;55.718;21.122;2023-04-15T11:28:19;18.52;48.03
64499;SHT31;51087;55.718;21.122;2023-04-15T11:30:45;18.80;47.66
64499;SHT31;51087;55.718;21.122;2023-04-15T11:33:11;18.52;47.72
64499;SHT31;51087;55.718;21.122;2023-04-15T11:35:40;18.53;47.29
64499;SHT31;51087;55.718;21.122;2023-04-15T11:38:12;18.58;47.50
64499;SHT31;51087;55.718;21.122;2023-04-15T11:40:39;18.80;46.85
64499;SHT31;51087;55.718;21.122;2023-04-15T11:43:09;18.89;46.75
64499;SHT31;51087;55.718;21.122;2023-04-15T11:45:37;19.10;46.93
64499;SHT31;51087;55.718;21.122;2023-04-15T11:48:10;19.57;46.27
64499;SHT31;51087;55.718;21.122;2023-04-15T11:50:37;19.63;46.08
64499;SHT31;51087;55.718;21.122;2023-04-15T11:53:08;19.87;45.01
64499;SHT31;51087;55.718;21.122;2023-04-15T11:55:41;19.75;44.93
64499;SHT31;51087;55.718;21.122;2023-04-15T11:58:16;19.76;44.98
64499;SHT31;51087;55.718;21.122;2023-04-15T12:00:49;19.65;45.22
64499;SHT31;51087;55.718;21.122;2023-04-15T12:14:10;19.10;46.60
64499;SHT31;51087;55.718;21.122;2023-04-15T12:16:41;18.76;47.37
64499;SHT31;51087;55.718;21.122;2023-04-15T12:19:12;18.25;48.22
64499;SHT31;51087;55.718;21.122;2023-04-15T12:21:44;17.93;48.55
64499;SHT31;51087;55.718;21.122;2023-04-15T12:24:11;17.93;48.82
64499;SHT31;51087;55.718;21.122;2023-04-15T12:26:42;17.77;49.33
64499;SHT31;51087;55.718;21.122;2023-04-15T12:29:08;17.58;49.71
64499;SHT31;51087;55.718;21.122;2023-04-15T12:31:35;17.56;49.56
64499;SHT31;51087;55.718;21.122;2023-04-15T12:34:06;17.46;50.21
64499;SHT31;51087;55.718;21.122;2023-04-15T12:36:32;17.20;50.28
64499;SHT31;51087;55.718;21.122;2023-04-15T12:39:02;16.97;50.62
64499;SHT31;51087;55.718;21.122;2023-04-15T12:41:28;17.00;51.00
64499;SHT31;51087;55.718;21.122;2023-04-15T12:43:54;16.90;51.17
64499;SHT31;51087;55.718;21.122;2023-04-15T12:46:19;16.70;51.27
64499;SHT31;51087;55.718;21.122;2023-04-15T12:48:44;16.56;51.35
64499;SHT31;51087;55.718;21.122;2023-04-15T12:51:10;16.73;51.53
64499;SHT31;51087;55.718;21.122;2023-04-15T12:53:35;16.85;51.24
64499;SHT31;51087;55.718;21.122;2023-04-15T12:56:01;16.81;51.63
64499;SHT31;51087;55.718;21.122;2023-04-15T12:58:26;16.73;51.84
64499;SHT31;51087;55.718;21.122;2023-04-15T13:00:52;16.63;51.83
64499;SHT31;51087;55.718;21.122;2023-04-15T13:03:17;16.62;52.42
64499;SHT31;51087;55.718;21.122;2023-04-15T13:05:43;16.33;52.50
64499;SHT31;51087;55.718;21.122;2023-04-15T13:08:08;16.19;52.73
64499;SHT31;51087;55.718;21.122;2023-04-15T13:10:34;16.21;53.24
64499;SHT31;51087;55.718;21.122;2023-04-15T13:13:03;16.19;52.85
64499;SHT31;51087;55.718;21.122;2023-04-15T13:15:29;16.29;52.76
64499;SHT31;51087;55.718;21.122;2023-04-15T13:17:55;16.24;52.67
64499;SHT31;51087;55.718;21.122;2023-04-15T13:20:20;16.08;52.90
64499;SHT31;51087;55.718;21.122;2023-04-15T13:22:46;15.98;53.39
64499;SHT31;51087;55.718;21.122;2023-04-15T13:25:11;16.04;53.56
64499;SHT31;51087;55.718;21.122;2023-04-15T13:27:37;16.04;53.52
64499;SHT31;51087;55.718;21.122;2023-04-15T13:30:04;16.08;53.52
64499;SHT31;51087;55.718;21.122;2023-04-15T13:32:30;16.11;53.95
64499;SHT31;51087;55.718;21.122;2023-04-15T13:34:55;16.17;53.98
64499;SHT31;51087;55.718;21.122;2023-04-15T13:37:26;15.74;54.24
64499;SHT31;51087;55.718;21.122;2023-04-15T13:39:52;15.66;54.34
64499;SHT31;51087;55.718;21.122;2023-04-15T13:42:17;15.59;54.22
64499;SHT31;51087;55.718;21.122;2023-04-15T13:44:43;15.47;54.53
64499;SHT31;51087;55.718;21.122;2023-04-15T13:47:08;15.36;54.90
64499;SHT31;51087;55.718;21.122;2023-04-15T13:49:33;15.43;55.18
64499;SHT31;51087;55.718;21.122;2023-04-15T13:51:59;15.64;54.82
64499;SHT31;51087;55.718;21.122;2023-04-15T13:54:26;15.70;53.94
64499;SHT31;51087;55.718;21.122;2023-04-15T13:56:53;15.71;54.22
64499;SHT31;51087;55.718;21.122;2023-04-15T13:59:18;15.84;53.64
64499;SHT31;51087;55.718;21.122;2023-04-15T14:01:44;16.14;53.32
64499;SHT31;51087;55.718;21.122;2023-04-15T14:04:09;16.25;53.15
64499;SHT31;51087;55.718;21.122;2023-04-15T14:06:35;16.19;53.23
64499;SHT31;51087;55.718;21.122;2023-04-15T14:09:00;16.05;53.02
64499;SHT31;51087;55.718;21.122;2023-04-15T14:11:26;15.91;53.73
64499;SHT31;51087;55.718;21.122;2023-04-15T14:13:51;15.83;53.86
64499;SHT31;51087;55.718;21.122;2023-04-15T14:16:17;15.93;53.70
64499;SHT31;51087;55.718;21.122;2023-04-15T14:18:43;15.98;53.68
64499;SHT31;51087;55.718;21.122;2023-04-15T14:21:08;16.00;53.96
64499;SHT31;51087;55.718;21.122;2023-04-15T14:23:34;16.01;53.71
64499;SHT31;51087;55.718;21.122;2023-04-15T14:25:59;15.83;53.51
64499;SHT31;51087;55.718;21.122;2023-04-15T14:28:25;15.77;53.93
64499;SHT31;51087;55.718;21.122;2023-04-15T14:30:50;15.80;53.64
64499;SHT31;51087;55.718;21.122;2023-04-15T14:33:16;15.76;53.57
64499;SHT31;51087;55.718;21.122;2023-04-15T14:35:41;15.62;54.06
64499;SHT31;51087;55.718;21.122;2023-04-15T14:38:06;15.73;54.05
64499;SHT31;51087;55.718;21.122;2023-04-15T14:40:34;15.73;53.57
64499;SHT31;51087;55.718;21.122;2023-04-15T14:43:00;15.44;53.87
64499;SHT31;51087;55.718;21.122;2023-04-15T14:45:25;15.52;53.85
64499;SHT31;51087;55.718;21.122;2023-04-15T14:47:51;15.49;54.05
64499;SHT31;51087;55.718;21.122;2023-04-15T14:50:17;15.62;53.98
64499;SHT31;51087;55.718;21.122;2023-04-15T14:52:42;15.53;54.22
64499;SHT31;51087;55.718;21.122;2023-04-15T14:55:09;15.35;54.50
64499;SHT31;51087;55.718;21.122;2023-04-15T14:57:36;15.22;54.99
64499;SHT31;51087;55.718;21.122;2023-04-15T15:00:02;15.18;55.14
64499;SHT31;51087;55.718;21.122;2023-04-15T15:02:28;15.14;55.05
64499;SHT31;51087;55.718;21.122;2023-04-15T15:04:54;15.12;55.43
64499;SHT31;51087;55.718;21.122;2023-04-15T15:07:20;15.05;55.19
64499;SHT31;51087;55.718;21.122;2023-04-15T15:09:45;15.12;55.11
64499;SHT31;51087;55.718;21.122;2023-04-15T15:12:11;15.29;54.52
64499;SHT31;51087;55.718;21.122;2023-04-15T15:14:36;15.32;54.44
64499;SHT31;51087;55.718;21.122;2023-04-15T15:17:01;15.32;54.43
64499;SHT31;51087;55.718;21.122;2023-04-15T15:19:27;15.14;55.14
64499;SHT31;51087;55.718;21.122;2023-04-15T15:21:52;14.98;55.07
64499;SHT31;51087;55.718;21.122;2023-04-15T15:24:18;15.15;54.56
64499;SHT31;51087;55.718;21.122;2023-04-15T15:26:43;15.08;54.75
64499;SHT31;51087;55.718;21.122;2023-04-15T15:29:08;15.09;55.14
64499;SHT31;51087;55.718;21.122;2023-04-15T15:31:34;14.95;55.11
64499;SHT31;51087;55.718;21.122;2023-04-15T15:34:00;14.88;55.18
64499;SHT31;51087;55.718;21.122;2023-04-15T15:36:25;14.95;55.39
64499;SHT31;51087;55.718;21.122;2023-04-15T15:38:51;15.12;54.87
64499;SHT31;51087;55.718;21.122;2023-04-15T15:41:17;15.16;54.40